Time;durP1;ratioP1;P1;durP2;ratioP2;P2;SDS_P1;SDS_P2;PMS_P1;PMS_P2;Temp;Humidity;BMP_temperature;BMP_pressure;BME280_temperature;BME280_humidity;BME280_pressure;Samples;Min_cycle;Max_cycle;Signal;HPM_P1;HPM_P2
2022/11/03 00:01:33;;;;;;;4.90;0.95;;;;;;;10.75;100.00;99431.38;4932311;29;20037;-78
2022/11/03 00:04:02;;;;;;;14.13;1.55;;;;;;;10.79;100.00;99426.94;4933417;29;20020;-77
2022/11/03 00:06:37;;;;;;;4.18;1.02;;;;;;;10.78;100.00;99414.41;4930125;29;20027;-76
2022/11/03 00:09:08;;;;;;;7.05;1.27;;;;;;;10.74;100.00;99403.22;4918474;29;20035;-75
2022/11/03 00:11:35;;;;;;;11.07;1.60;;;;;;;10.72;100.00;99407.34;4947795;29;20044;-78
2022/11/03 00:14:14;;;;;;;;;;;;;;;;;;;;;
2022/11/03 00:16:50;;;;;;;7.82;1.48;;;;;;;10.76;100.00;99401.00;4943922;29;20028;-76
2022/11/03 00:19:16;;;;;;;6.90;1.30;;;;;;;10.81;100.00;99395.47;4919338;29;20135;-77
2022/11/03 00:21:42;;;;;;;4.15;1.45;;;;;;;10.87;100.00;99396.22;4928279;29;20482;-73
2022/11/03 00:24:07;;;;;;;6.72;1.10;;;;;;;10.88;100.00;99397.84;4925488;29;20028;-76
2022/11/03 00:26:34;;;;;;;4.55;1.33;;;;;;;10.92;100.00;99396.16;4892360;29;20046;-74
2022/11/03 00:29:05;;;;;;;6.63;1.85;;;;;;;10.95;100.00;99400.22;4927112;29;20111;-74
2022/11/03 00:31:32;;;;;;;3.63;1.02;;;;;;;10.96;100.00;99394.44;4926638;29;20024;-74
2022/11/03 00:33:59;;;;;;;1.02;0.40;;;;;;;10.97;100.00;99385.13;4926381;29;20131;-73
2022/11/03 00:36:30;;;;;;;2.50;0.80;;;;;;;10.96;100.00;99378.03;4925728;29;20479;-74
2022/11/03 00:38:56;;;;;;;2.70;0.90;;;;;;;10.98;100.00;99381.31;4939047;29;20035;-73
2022/11/03 00:41:23;;;;;;;3.67;0.90;;;;;;;10.96;100.00;99372.56;4931450;29;20070;-72
2022/11/03 00:43:49;;;;;;;4.43;1.20;;;;;;;10.99;100.00;99354.75;4899490;29;20032;-74
2022/11/03 00:46:15;;;;;;;2.15;0.75;;;;;;;11.00;100.00;99354.47;4932767;29;20040;-72
2022/11/03 00:48:41;;;;;;;7.05;1.00;;;;;;;11.00;100.00;99349.00;4935149;29;20153;-73
2022/11/03 00:51:10;;;;;;;4.78;1.00;;;;;;;11.07;100.00;99336.84;4945592;29;20027;-72
2022/11/03 00:53:52;;;;;;;1.45;0.70;;;;;;;11.07;100.00;99334.13;4933488;29;20035;-71
2022/11/03 00:56:23;;;;;;;1.95;0.82;;;;;;;11.07;100.00;99329.47;4931720;29;20024;-73
2022/11/03 00:58:50;;;;;;;3.05;0.93;;;;;;;11.11;100.00;99335.16;4926752;29;20024;-73
2022/11/03 01:01:22;;;;;;;1.92;0.63;;;;;;;11.12;100.00;99315.72;4909059;29;20036;-73
2022/11/03 01:06:49;;;;;;;2.97;0.80;;;;;;;11.15;100.00;99325.25;4938892;29;20411;-75
2022/11/03 01:09:28;;;;;;;5.10;0.90;;;;;;;11.17;100.00;99318.38;4931191;29;20035;-72
2022/11/03 01:11:59;;;;;;;2.22;0.80;;;;;;;11.20;100.00;99322.47;4924716;29;20040;-72
2022/11/03 01:14:32;;;;;;;4.43;1.40;;;;;;;11.18;100.00;99306.34;4931238;29;20047;-73
2022/11/03 01:16:57;;;;;;;3.28;0.77;;;;;;;11.14;100.00;99290.78;4935365;29;20031;-72
2022/11/03 01:19:24;;;;;;;2.42;1.05;;;;;;;11.14;100.00;99301.72;4926000;29;20040;-75
2022/11/03 01:21:50;;;;;;;1.50;0.70;;;;;;;11.12;100.00;99302.03;4938153;29;20024;-74
2022/11/03 01:24:16;;;;;;;2.63;0.80;;;;;;;11.06;100.00;99296.94;4928345;29;20032;-75
2022/11/03 01:26:41;;;;;;;3.83;1.00;;;;;;;11.08;100.00;99297.47;4929037;29;20042;-74
2022/11/03 01:29:07;;;;;;;5.05;1.02;;;;;;;11.00;100.00;99280.59;4926853;29;20040;-74
2022/11/03 01:31:32;;;;;;;4.57;0.88;;;;;;;10.96;100.00;99279.56;4929647;29;20040;-74
2022/11/03 01:34:00;;;;;;;2.88;0.82;;;;;;;10.92;100.00;99280.47;4934891;29;20020;-75
2022/11/03 01:36:25;;;;;;;5.88;1.10;;;;;;;10.90;100.00;99290.91;4927862;29;20507;-75
2022/11/03 01:38:54;;;;;;;6.90;1.23;;;;;;;10.87;100.00;99286.00;4927637;29;20113;-74
2022/11/03 01:41:25;;;;;;;3.22;0.90;;;;;;;10.85;100.00;99283.59;4936048;28;20047;-73
2022/11/03 01:44:06;;;;;;;6.15;1.27;;;;;;;10.84;100.00;99279.22;4934609;29;20547;-73
2022/11/03 01:46:35;;;;;;;2.55;0.70;;;;;;;10.82;100.00;99265.03;4966777;28;20023;-74
2022/11/03 01:49:10;;;;;;;2.55;0.98;;;;;;;10.81;100.00;99255.19;4948226;29;20064;-74
2022/11/03 01:51:38;;;;;;;4.65;0.65;;;;;;;10.81;100.00;99255.19;4948111;28;20042;-73
2022/11/03 01:54:09;;;;;;;2.97;1.02;;;;;;;10.81;100.00;99236.06;4967571;28;20084;-74
2022/11/03 01:56:39;;;;;;;4.38;0.93;;;;;;;10.82;100.00;99240.41;4968509;29;20031;-74
2022/11/03 01:59:06;;;;;;;2.05;1.00;;;;;;;10.84;100.00;99227.25;4948296;28;20058;-73
2022/11/03 02:01:33;;;;;;;2.25;0.65;;;;;;;10.83;100.00;99217.41;4963169;28;20055;-74
2022/11/03 02:04:06;;;;;;;2.88;0.90;;;;;;;10.83;100.00;99222.88;4953167;28;20027;-74
2022/11/03 02:06:32;;;;;;;1.98;1.17;;;;;;;10.83;100.00;99214.69;4948253;29;20016;-74
2022/11/03 02:09:02;;;;;;;1.27;0.57;;;;;;;10.83;100.00;99218.25;4968894;28;20031;-74
2022/11/03 02:14:12;;;;;;;2.22;0.73;;;;;;;10.79;100.00;99187.13;4965461;28;20061;-72
2022/11/03 02:16:43;;;;;;;0.90;0.40;;;;;;;10.82;100.00;99186.53;4967164;28;20126;-72
2022/11/03 02:19:20;;;;;;;0.50;0.35;;;;;;;10.81;100.00;99140.34;4948781;28;20031;-74
2022/11/03 02:22:10;;;;;;;0.28;0.28;;;;;;;10.77;100.00;99155.72;4967515;28;20067;-74
2022/11/03 02:24:58;;;;;;;0.52;0.30;;;;;;;10.76;100.00;99178.69;4962098;28;20039;-75
2022/11/03 02:27:24;;;;;;;0.40;0.38;;;;;;;10.82;100.00;99185.72;4967425;28;20023;-75
2022/11/03 02:29:50;;;;;;;3.72;0.90;;;;;;;10.81;100.00;99178.63;4952403;29;20042;-75
2022/11/03 02:32:21;;;;;;;2.55;0.85;;;;;;;10.76;100.00;99181.44;4933100;28;20032;-75
2022/11/03 02:35:04;;;;;;;3.10;0.73;;;;;;;10.61;100.00;99158.69;4945216;28;20033;-75
2022/11/03 02:37:43;;;;;;;2.65;0.70;;;;;;;10.49;100.00;99161.06;4949310;29;20031;-75
2022/11/03 02:40:20;;;;;;;3.97;0.85;;;;;;;10.44;100.00;99159.22;4951811;28;20023;-76
2022/11/03 02:42:49;;;;;;;0.80;0.30;;;;;;;10.39;100.00;99150.28;4946862;29;20150;-74
2022/11/03 02:45:18;;;;;;;1.17;0.43;;;;;;;10.40;100.00;99152.72;4942253;29;20032;-75
2022/11/03 02:47:45;;;;;;;9.13;1.20;;;;;;;10.44;100.00;99161.13;4947543;29;20031;-75
2022/11/03 02:50:12;;;;;;;5.22;0.65;;;;;;;10.46;100.00;99150.72;4948255;29;20031;-76
2022/11/03 02:52:46;;;;;;;0.60;0.40;;;;;;;10.52;100.00;99146.00;4946703;29;20031;-77
2022/11/03 02:55:24;;;;;;;0.90;0.40;;;;;;;10.56;100.00;99139.63;4953162;29;20007;-75
2022/11/03 02:58:16;;;;;;;2.42;0.68;;;;;;;10.58;100.00;99126.47;4955806;29;20032;-75
2022/11/03 03:01:15;;;;;;;1.20;0.60;;;;;;;10.61;100.00;99127.81;4946898;28;20028;-75
2022/11/03 03:03:46;;;;;;;1.08;0.50;;;;;;;10.64;100.00;99108.91;4935905;29;20043;-76
2022/11/03 03:06:20;;;;;;;1.33;0.47;;;;;;;10.68;100.00;99097.38;4947660;29;20111;-76
2022/11/03 03:08:50;;;;;;;6.35;1.42;;;;;;;10.68;100.00;99108.31;4947279;29;20023;-75
2022/11/03 03:11:35;;;;;;;3.85;0.55;;;;;;;10.71;100.00;99096.75;4958641;28;20028;-75
2022/11/03 03:14:16;;;;;;;0.70;0.40;;;;;;;10.71;100.00;99099.50;4934389;29;20032;-76
2022/11/03 03:16:44;;;;;;;1.23;0.38;;;;;;;10.70;100.00;99095.13;4947321;29;20027;-74
2022/11/03 03:19:20;;;;;;;2.97;0.70;;;;;;;10.71;100.00;99091.28;4945143;29;20020;-76
2022/11/03 03:21:51;;;;;;;2.30;0.60;;;;;;;10.69;100.00;99088.03;4954760;29;20030;-75
2022/11/03 03:24:46;;;;;;;3.85;0.47;;;;;;;10.68;100.00;99092.69;4955904;29;20034;-76
2022/11/03 03:27:13;;;;;;;1.35;0.43;;;;;;;10.66;100.00;99073.06;4952487;29;20011;-75
2022/11/03 03:29:48;;;;;;;0.85;0.40;;;;;;;10.64;100.00;99075.25;4936174;29;20036;-74
2022/11/03 03:32:18;;;;;;;0.95;0.32;;;;;;;10.61;100.00;99063.00;4945068;29;20078;-75
2022/11/03 03:34:46;;;;;;;1.77;0.50;;;;;;;10.59;100.00;99057.03;4947102;29;21533;-74
2022/11/03 03:37:14;;;;;;;0.60;0.50;;;;;;;10.61;100.00;99065.72;4951116;29;20083;-73
2022/11/03 03:39:45;;;;;;;3.38;0.80;;;;;;;10.60;100.00;99086.00;4954980;29;20020;-75
2022/11/03 03:42:13;;;;;;;8.57;1.10;;;;;;;10.50;100.00;99086.16;4953527;28;20054;-75
2022/11/03 03:44:41;;;;;;;8.65;1.35;;;;;;;10.41;100.00;99083.31;4965977;28;20027;-74
2022/11/03 03:47:13;;;;;;;7.78;1.35;;;;;;;10.35;100.00;99072.75;4949947;29;20066;-74
2022/11/03 03:49:39;;;;;;;9.82;1.58;;;;;;;10.28;100.00;99076.63;4948045;29;20043;-74
2022/11/03 03:52:08;;;;;;;5.45;1.63;;;;;;;10.18;100.00;99068.59;4941678;28;20035;-75
2022/11/03 03:54:33;;;;;;;7.43;1.42;;;;;;;10.12;100.00;99075.25;4932683;28;20327;-75
2022/11/03 03:57:02;;;;;;;6.93;0.75;;;;;;;10.05;100.00;99061.94;4943747;29;20107;-74
2022/11/03 03:59:28;;;;;;;4.13;1.00;;;;;;;10.01;100.00;99054.66;4945851;29;20545;-75
2022/11/03 04:01:53;;;;;;;1.83;0.77;;;;;;;9.98;100.00;99057.97;4965760;28;20022;-74
2022/11/03 04:04:19;;;;;;;1.35;0.52;;;;;;;9.95;100.00;99049.25;4949085;29;20041;-74
2022/11/03 04:06:44;;;;;;;3.40;0.57;;;;;;;9.94;100.00;99058.56;4948992;29;20448;-76
2022/11/03 04:09:10;;;;;;;2.25;0.90;;;;;;;9.91;100.00;99056.41;4932008;28;20030;-75
2022/11/03 04:22:32;;;;;;;0.10;0.10;;;;;;;9.92;100.00;99033.47;4958986;29;20272;-73
2022/11/03 04:24:58;;;;;;;0.75;0.22;;;;;;;9.96;100.00;99033.69;4928542;28;20032;-72
2022/11/03 04:27:34;;;;;;;0.20;0.20;;;;;;;9.96;100.00;99031.75;4936299;29;20434;-75
2022/11/03 04:30:08;;;;;;;0.10;0.10;;;;;;;9.93;100.00;99029.63;4960562;28;20027;-74
2022/11/03 04:32:34;;;;;;;;;;;;;;;9.93;100.00;99026.91;4948521;29;20034;-74
2022/11/03 04:34:59;;;;;;;0.10;0.10;;;;;;;9.94;100.00;99023.06;4945101;28;20950;-73
2022/11/03 04:37:28;;;;;;;0.20;0.10;;;;;;;10.00;100.00;99012.06;4923842;29;20028;-73
2022/11/03 04:40:13;;;;;;;0.00;0.00;;;;;;;10.04;100.00;99018.56;4935807;28;20042;-74
2022/11/03 04:42:39;;;;;;;0.15;0.10;;;;;;;10.06;100.00;99021.78;4938536;28;20069;-73
2022/11/03 04:45:14;;;;;;;0.10;0.10;;;;;;;10.04;100.00;99026.75;4951272;28;21982;-73
2022/11/03 04:47:40;;;;;;;0.20;0.10;;;;;;;10.04;100.00;99041.19;4967021;28;20122;-73
2022/11/03 04:50:14;;;;;;;0.57;0.30;;;;;;;10.02;100.00;99029.78;4935229;28;20008;-73
2022/11/03 04:52:39;;;;;;;0.47;0.30;;;;;;;10.05;100.00;99020.19;4955476;28;20019;-74
2022/11/03 04:55:09;;;;;;;1.58;0.65;;;;;;;10.08;100.00;99023.13;4920255;28;20045;-74
2022/11/03 04:57:34;;;;;;;0.85;0.40;;;;;;;10.10;100.00;99028.28;4947481;29;20035;-73
2022/11/03 05:00:00;;;;;;;0.30;0.20;;;;;;;10.13;100.00;99027.69;4963570;28;20026;-76
2022/11/03 05:02:25;;;;;;;1.40;0.70;;;;;;;10.07;100.00;99028.88;4947869;29;20027;-75
2022/11/03 05:04:51;;;;;;;1.27;0.52;;;;;;;10.03;100.00;99022.38;4918730;28;20066;-74
2022/11/03 05:07:31;;;;;;;0.82;0.47;;;;;;;10.01;100.00;99019.16;4942032;28;20588;-73
2022/11/03 05:09:58;;;;;;;0.68;0.30;;;;;;;10.03;100.00;99008.72;4951965;28;20027;-76
2022/11/03 05:12:24;;;;;;;0.15;0.15;;;;;;;10.05;100.00;98999.13;4918234;29;20027;-75
2022/11/03 05:14:52;;;;;;;0.17;0.10;;;;;;;10.06;100.00;98994.47;4936267;28;20038;-78
2022/11/03 05:17:27;;;;;;;0.10;0.10;;;;;;;10.11;100.00;98986.22;4954255;28;20031;-77
2022/11/03 05:20:03;;;;;;;0.20;0.10;;;;;;;10.13;100.00;98989.44;4946196;28;20850;-78
2022/11/03 05:22:36;;;;;;;0.60;0.30;;;;;;;10.13;100.00;98981.25;4953144;28;20571;-76
2022/11/03 05:25:25;;;;;;;0.20;0.20;;;;;;;10.16;100.00;98983.38;4954422;28;20023;-77
2022/11/03 05:27:50;;;;;;;0.10;0.10;;;;;;;10.16;100.00;98980.66;4968760;28;20474;-78
2022/11/03 05:30:16;;;;;;;0.10;0.10;;;;;;;10.17;100.00;98979.56;4936851;28;20030;-78
2022/11/03 05:32:42;;;;;;;0.20;0.20;;;;;;;10.18;100.00;98981.19;4939300;28;20049;-77
2022/11/03 05:35:19;;;;;;;0.32;0.10;;;;;;;10.15;100.00;98973.59;4937780;28;20031;-77
2022/11/03 05:37:45;;;;;;;2.92;0.47;;;;;;;10.11;100.00;98969.81;4952301;28;20015;-77
2022/11/03 05:40:23;;;;;;;1.42;0.40;;;;;;;10.09;100.00;98970.13;4932473;29;20044;-78
2022/11/03 05:42:59;;;;;;;3.33;0.40;;;;;;;10.04;100.00;98966.66;4964742;28;20070;-78
2022/11/03 05:45:31;;;;;;;0.68;0.30;;;;;;;9.99;100.00;98961.28;4952791;29;20111;-78
2022/11/03 05:47:57;;;;;;;0.35;0.20;;;;;;;9.96;100.00;98951.78;4968308;28;20023;-78
2022/11/03 05:50:33;;;;;;;1.35;0.32;;;;;;;9.93;100.00;98957.84;4940823;29;20094;-78
2022/11/03 05:53:11;;;;;;;0.55;0.30;;;;;;;9.89;100.00;98957.59;4960280;28;20078;-79
2022/11/03 05:55:37;;;;;;;1.15;0.50;;;;;;;9.84;100.00;98952.25;4953417;28;20063;-79
2022/11/03 05:58:22;;;;;;;0.20;0.10;;;;;;;9.82;100.00;98957.16;4954932;29;20034;-79
2022/11/03 06:00:47;;;;;;;1.15;0.50;;;;;;;9.78;100.00;98950.66;4953885;28;20015;-79
2022/11/03 06:03:18;;;;;;;0.80;0.35;;;;;;;9.71;100.00;98942.03;4950272;28;20054;-77
2022/11/03 06:05:45;;;;;;;0.40;0.22;;;;;;;9.74;100.00;98939.53;4956894;28;20057;-78
2022/11/03 06:08:34;;;;;;;0.20;0.20;;;;;;;9.76;100.00;98941.97;4939522;28;20205;-77
2022/11/03 06:11:04;;;;;;;0.55;0.20;;;;;;;9.73;100.00;98929.72;4952796;29;20390;-78
2022/11/03 06:13:36;;;;;;;0.60;0.30;;;;;;;9.72;100.00;98924.56;4951063;28;20011;-78
2022/11/03 06:16:35;;;;;;;0.20;0.20;;;;;;;9.71;100.00;98931.13;4954342;28;20095;-79
2022/11/03 06:19:22;;;;;;;0.20;0.20;;;;;;;9.69;100.00;98922.44;4950048;29;20019;-77
2022/11/03 06:22:05;;;;;;;1.20;0.20;;;;;;;9.66;100.00;98923.03;4963333;28;20071;-79
2022/11/03 06:24:52;;;;;;;0.32;0.17;;;;;;;9.64;100.00;98919.78;4939412;28;20023;-80
2022/11/03 06:27:40;;;;;;;0.20;0.20;;;;;;;9.64;100.00;98923.31;4981742;28;20035;-81
2022/11/03 06:30:42;;;;;;;0.20;0.20;;;;;;;9.65;100.00;98919.50;4949159;28;20027;-80
2022/11/03 06:33:50;;;;;;;;;;;;;;;;;;;;;
2022/11/03 06:36:28;;;;;;;0.10;0.10;;;;;;;9.60;100.00;98917.63;4966116;28;20069;-77
2022/11/03 06:39:01;;;;;;;0.00;0.00;;;;;;;9.54;100.00;98918.03;4956973;29;20031;-79
2022/11/03 06:41:29;;;;;;;0.17;0.13;;;;;;;9.56;100.00;98916.63;4966404;28;20046;-78
2022/11/03 06:44:00;;;;;;;0.20;0.20;;;;;;;9.54;100.00;98913.38;4959581;28;20012;-78
2022/11/03 06:46:26;;;;;;;0.10;0.10;;;;;;;9.54;100.00;98907.91;4950308;28;20038;-78
2022/11/03 06:48:54;;;;;;;0.15;0.15;;;;;;;9.55;100.00;98909.53;4943424;29;20008;-79
2022/11/03 06:51:29;;;;;;;3.30;0.50;;;;;;;9.47;100.00;98918.38;4937374;28;20031;-73
2022/11/03 06:54:27;;;;;;;;;;;;;;;;;;;;;
2022/11/03 06:56:55;;;;;;;2.22;0.70;;;;;;;9.37;100.00;98910.34;4954422;29;20055;-77
2022/11/03 06:59:21;;;;;;;0.80;0.50;;;;;;;9.26;100.00;98902.31;4951863;28;20041;-77
2022/11/03 07:01:53;;;;;;;0.95;0.40;;;;;;;9.26;100.00;98899.59;4968680;28;20035;-78
2022/11/03 07:04:27;;;;;;;0.28;0.28;;;;;;;9.27;100.00;98892.19;4965944;28;20051;-79
2022/11/03 07:06:57;;;;;;;1.65;0.38;;;;;;;9.29;100.00;98878.25;4953225;29;20118;-79
2022/11/03 07:09:27;;;;;;;1.38;0.50;;;;;;;9.29;100.00;98883.72;4939491;28;20011;-78
2022/11/03 07:11:56;;;;;;;1.10;0.60;;;;;;;9.22;100.00;98882.19;4951502;28;20031;-78
2022/11/03 07:14:26;;;;;;;1.45;0.60;;;;;;;9.19;100.00;98874.59;4951103;29;20051;-78
2022/11/03 07:16:59;;;;;;;0.40;0.38;;;;;;;9.15;100.00;98862.66;4954123;28;20035;-77
2022/11/03 07:19:25;;;;;;;2.15;0.65;;;;;;;9.19;100.00;98854.69;4972809;28;20425;-77
2022/11/03 07:21:55;;;;;;;1.30;0.50;;;;;;;9.21;100.00;98856.03;4943600;29;20083;-77
2022/11/03 07:24:28;;;;;;;0.60;0.50;;;;;;;9.19;100.00;98858.22;4975509;28;20121;-78
2022/11/03 07:27:15;;;;;;;1.10;0.50;;;;;;;9.17;100.00;98860.44;4966654;28;20041;-78
2022/11/03 07:29:42;;;;;;;0.50;0.40;;;;;;;9.22;100.00;98856.84;4964825;29;20055;-77
2022/11/03 07:32:19;;;;;;;0.77;0.50;;;;;;;9.29;100.00;98861.91;4963688;28;20046;-77
2022/11/03 07:34:50;;;;;;;1.02;0.40;;;;;;;9.31;100.00;98881.53;4951280;28;20123;-83
2022/11/03 07:37:20;;;;;;;0.20;0.20;;;;;;;9.31;100.00;98892.44;4939232;28;20035;-78
2022/11/03 07:39:49;;;;;;;1.00;0.30;;;;;;;9.30;100.00;98901.72;4947438;28;20122;-80
2022/11/03 07:42:21;;;;;;;0.63;0.30;;;;;;;9.23;100.00;98897.44;4964062;28;20047;-79
2022/11/03 07:44:47;;;;;;;0.82;0.20;;;;;;;9.21;100.00;98877.84;4952421;28;20029;-79
2022/11/03 07:47:24;;;;;;;3.17;0.50;;;;;;;9.21;100.00;98872.41;4942990;29;20046;-79
2022/11/03 07:49:50;;;;;;;0.45;0.40;;;;;;;9.28;100.00;98871.22;4965074;28;21808;-83
2022/11/03 07:52:20;;;;;;;0.52;0.45;;;;;;;9.36;100.00;98881.44;4962527;28;20047;-76
2022/11/03 07:54:45;;;;;;;1.23;0.32;;;;;;;9.42;100.00;98886.53;4967043;28;20037;-74
2022/11/03 07:57:18;;;;;;;0.30;0.30;;;;;;;9.46;100.00;98889.47;4945111;29;20472;-79
2022/11/03 07:59:47;;;;;;;2.53;0.77;;;;;;;9.49;100.00;98893.53;4962415;28;20020;-76
2022/11/03 08:02:19;;;;;;;3.17;1.17;;;;;;;9.49;100.00;98912.63;4948408;29;20089;-76
2022/11/03 08:04:44;;;;;;;4.15;0.98;;;;;;;9.49;100.00;98904.44;4950525;28;20031;-77
2022/11/03 08:07:10;;;;;;;2.53;0.80;;;;;;;9.46;100.00;98894.94;4922615;28;20089;-78
2022/11/03 08:09:38;;;;;;;1.45;0.40;;;;;;;9.55;100.00;98900.53;4934040;28;20042;-77
2022/11/03 08:12:04;;;;;;;2.10;0.60;;;;;;;9.52;100.00;98904.69;4949226;28;20063;-77
2022/11/03 08:14:32;;;;;;;1.45;0.70;;;;;;;9.48;100.00;98903.66;4969534;28;20030;-77
2022/11/03 08:20:20;;;;;;;2.38;0.70;;;;;;;9.64;100.00;98911.59;4967299;28;20111;-78
2022/11/03 08:22:45;;;;;;;2.20;0.82;;;;;;;9.62;100.00;98909.16;4950286;28;20035;-77
2022/11/03 08:25:11;;;;;;;0.70;0.50;;;;;;;9.64;100.00;98906.13;4939934;28;20023;-77
2022/11/03 08:27:39;;;;;;;1.20;0.50;;;;;;;9.67;100.00;98905.56;4934837;29;20035;-77
2022/11/03 08:30:05;;;;;;;3.03;1.00;;;;;;;9.70;100.00;98904.97;4941369;28;20019;-79
2022/11/03 08:32:31;;;;;;;1.17;0.70;;;;;;;9.72;100.00;98900.00;4945620;28;20023;-78
2022/11/03 08:35:21;;;;;;;1.35;0.77;;;;;;;9.75;100.00;98896.66;4945586;28;20031;-78
2022/11/03 08:38:04;;;;;;;3.90;0.93;;;;;;;9.81;100.00;98895.47;4957946;28;20038;-77
2022/11/03 08:40:33;;;;;;;0.50;0.50;;;;;;;9.81;100.00;98898.19;4945802;28;20118;-78
2022/11/03 08:43:01;;;;;;;1.95;0.60;;;;;;;9.85;100.00;98898.44;4948863;28;20027;-77
2022/11/03 08:45:34;;;;;;;3.75;0.88;;;;;;;9.87;100.00;98899.75;4936317;28;20016;-81
2022/11/03 08:48:02;;;;;;;2.10;0.63;;;;;;;9.92;100.00;98909.78;4948340;28;20004;-76
2022/11/03 08:50:29;;;;;;;1.42;0.43;;;;;;;9.98;100.00;98910.50;4934340;28;20042;-77
2022/11/03 08:52:57;;;;;;;1.15;0.35;;;;;;;10.08;100.00;98902.13;4946757;28;20034;-80
2022/11/03 08:55:25;;;;;;;1.88;0.68;;;;;;;10.13;100.00;98904.78;4960243;28;20054;-79
2022/11/03 08:57:51;;;;;;;1.98;0.75;;;;;;;10.13;100.00;98891.13;4930697;28;20038;-79
2022/11/03 09:00:19;;;;;;;2.97;0.70;;;;;;;10.18;100.00;98896.50;4942960;28;20473;-78
2022/11/03 09:02:45;;;;;;;1.92;0.57;;;;;;;10.21;100.00;98884.97;4961380;28;20035;-79
2022/11/03 09:05:11;;;;;;;1.40;0.68;;;;;;;10.27;100.00;98891.16;4926167;28;20099;-78
2022/11/03 09:07:48;;;;;;;0.63;0.40;;;;;;;10.30;100.00;98891.34;4961376;28;20039;-79
2022/11/03 09:10:16;;;;;;;0.22;0.22;;;;;;;10.41;100.00;98896.66;4940752;28;20030;-78
2022/11/03 09:12:44;;;;;;;1.75;0.50;;;;;;;10.42;100.00;98892.81;4944881;28;20035;-79
2022/11/03 09:15:10;;;;;;;0.63;0.30;;;;;;;10.47;100.00;98895.47;4960217;28;20031;-78
2022/11/03 09:17:41;;;;;;;3.03;0.88;;;;;;;10.48;100.00;98902.53;4975598;28;20031;-79
2022/11/03 09:20:07;;;;;;;2.38;0.70;;;;;;;10.46;100.00;98894.63;4926719;28;20159;-80
2022/11/03 09:22:32;;;;;;;4.50;0.75;;;;;;;10.35;100.00;98881.47;4974061;28;20034;-79
2022/11/03 09:24:58;;;;;;;0.90;0.43;;;;;;;10.38;100.00;98878.13;4982911;28;20027;-77
2022/11/03 09:27:23;;;;;;;1.40;0.70;;;;;;;10.46;100.00;98882.91;4974965;28;20028;-79
2022/11/03 09:29:49;;;;;;;0.95;0.60;;;;;;;10.51;100.00;98874.59;4945114;28;20035;-78
2022/11/03 09:32:15;;;;;;;0.73;0.45;;;;;;;10.64;100.00;98867.50;4960719;28;20031;-79
2022/11/03 09:34:41;;;;;;;1.85;0.60;;;;;;;10.74;100.00;98878.22;4981818;28;20124;-79
2022/11/03 09:37:15;;;;;;;2.03;0.52;;;;;;;10.63;100.00;98871.34;4959316;28;20035;-78
2022/11/03 09:39:44;;;;;;;0.32;0.25;;;;;;;10.61;100.00;98863.44;4946247;28;20030;-78
2022/11/03 09:42:11;;;;;;;1.92;0.60;;;;;;;10.67;100.00;98871.56;4960255;28;20054;-79
2022/11/03 09:44:56;;;;;;;1.25;0.63;;;;;;;10.63;100.00;98861.25;4946846;28;20031;-79
2022/11/03 09:47:41;;;;;;;;;;;;;;;10.82;100.00;98874.00;4966178;28;20034;-77
2022/11/03 09:50:22;;;;;;;1.80;0.30;;;;;;;10.87;100.00;98862.13;4945145;28;20232;-78
2022/11/03 09:52:50;;;;;;;2.03;0.40;;;;;;;10.96;100.00;98869.28;4956907;28;20046;-78
2022/11/03 09:55:24;;;;;;;0.32;0.30;;;;;;;11.11;100.00;98854.50;4928223;28;20027;-78
2022/11/03 09:57:56;;;;;;;1.38;0.40;;;;;;;11.28;100.00;98851.06;4960247;28;20027;-79
2022/11/03 10:00:23;;;;;;;0.40;0.20;;;;;;;11.41;100.00;98852.16;4975756;28;20094;-79
2022/11/03 10:02:49;;;;;;;2.05;0.25;;;;;;;11.51;100.00;98851.09;4959485;28;20055;-78
2022/11/03 10:05:21;;;;;;;2.90;0.52;;;;;;;11.54;100.00;98850.47;4963190;28;19998;-77
2022/11/03 10:07:47;;;;;;;0.20;0.20;;;;;;;11.77;100.00;98847.72;4977212;28;20025;-78
2022/11/03 10:10:19;;;;;;;0.20;0.20;;;;;;;12.01;100.00;98847.44;4945401;28;20036;-78
2022/11/03 10:12:47;;;;;;;0.10;0.10;;;;;;;12.14;100.00;98845.72;4954644;28;20142;-79
2022/11/03 10:15:17;;;;;;;0.10;0.10;;;;;;;12.15;100.00;98836.38;4956961;28;20030;-78
2022/11/03 10:17:44;;;;;;;0.10;0.10;;;;;;;12.15;100.00;98839.09;4953497;28;20094;-78
2022/11/03 10:20:14;;;;;;;0.13;0.13;;;;;;;12.23;100.00;98855.59;4944999;28;20041;-78
2022/11/03 10:22:42;;;;;;;0.40;0.22;;;;;;;12.27;100.00;98858.53;4977963;28;20019;-78
2022/11/03 10:25:36;;;;;;;0.35;0.20;;;;;;;12.21;100.00;98857.03;4981911;28;20030;-79
2022/11/03 10:28:14;;;;;;;0.13;0.13;;;;;;;12.27;100.00;98844.03;4963164;28;20085;-79
2022/11/03 10:31:07;;;;;;;0.05;0.05;;;;;;;12.59;100.00;98856.56;4966739;28;20113;-79
2022/11/03 10:33:37;;;;;;;0.63;0.10;;;;;;;12.94;100.00;98856.63;4978978;28;20027;-78
2022/11/03 10:36:14;;;;;;;0.08;0.08;;;;;;;13.34;100.00;98862.03;4957891;28;20051;-79
2022/11/03 10:38:49;;;;;;;0.90;0.47;;;;;;;13.52;100.00;98857.34;4980509;28;20063;-79
2022/11/03 10:41:22;;;;;;;0.50;0.30;;;;;;;14.14;100.00;98869.84;4963392;29;20027;-78
2022/11/03 10:44:01;;;;;;;0.30;0.20;;;;;;;14.84;100.00;98869.59;4960107;28;20026;-78
2022/11/03 10:46:27;;;;;;;0.60;0.35;;;;;;;15.21;100.00;98868.22;4964697;28;20046;-78
2022/11/03 10:49:13;;;;;;;0.10;0.10;;;;;;;15.82;100.00;98865.00;4945663;28;20019;-78
2022/11/03 10:51:40;;;;;;;0.20;0.20;;;;;;;15.85;100.00;98859.59;4979548;28;20086;-78
2022/11/03 10:54:11;;;;;;;0.40;0.40;;;;;;;15.40;100.00;98856.75;4964975;28;20084;-79
2022/11/03 10:56:37;;;;;;;0.22;0.10;;;;;;;15.28;100.00;98843.72;4961870;28;20042;-78
2022/11/03 10:59:03;;;;;;;0.47;0.20;;;;;;;14.94;100.00;98846.38;4941574;28;20047;-78
2022/11/03 11:01:32;;;;;;;0.30;0.25;;;;;;;14.54;100.00;98843.19;4960627;28;20041;-79
2022/11/03 11:03:57;;;;;;;0.28;0.20;;;;;;;14.29;100.00;98842.97;4961606;28;20046;-78
2022/11/03 11:06:32;;;;;;;0.15;0.10;;;;;;;14.06;100.00;98831.38;4974197;28;20031;-78
2022/11/03 11:09:04;;;;;;;0.60;0.30;;;;;;;13.96;100.00;98838.06;4961588;28;20045;-77
2022/11/03 11:11:30;;;;;;;0.20;0.20;;;;;;;13.78;100.00;98849.09;4954177;28;20414;-78
2022/11/03 11:14:24;;;;;;;0.73;0.20;;;;;;;13.49;100.00;98854.44;4961657;28;20043;-79
2022/11/03 11:16:58;;;;;;;0.40;0.22;;;;;;;13.05;100.00;98857.97;4960026;28;20046;-79
2022/11/03 11:19:25;;;;;;;2.07;0.40;;;;;;;12.65;100.00;98866.25;4963517;28;20066;-79
2022/11/03 11:21:54;;;;;;;1.80;0.40;;;;;;;12.28;100.00;98873.84;4963043;28;20281;-78
2022/11/03 11:24:41;;;;;;;0.60;0.30;;;;;;;11.97;100.00;98869.19;4955225;28;20070;-78
2022/11/03 11:27:31;;;;;;;2.30;0.40;;;;;;;11.69;100.00;98858.31;4958955;28;20041;-78
2022/11/03 11:30:00;;;;;;;0.65;0.20;;;;;;;11.61;100.00;98856.34;4957590;28;20041;-79
2022/11/03 11:32:35;;;;;;;1.00;0.45;;;;;;;11.55;100.00;98860.31;4960699;28;20027;-78
2022/11/03 11:35:10;;;;;;;0.68;0.50;;;;;;;11.56;100.00;98837.28;4964570;28;20035;-79
2022/11/03 11:37:37;;;;;;;1.25;0.52;;;;;;;11.66;100.00;98861.66;4959630;28;20058;-81
2022/11/03 11:40:33;;;;;;;2.10;0.47;;;;;;;11.55;100.00;98874.00;4962142;28;20043;-77
2022/11/03 11:43:01;;;;;;;1.50;0.38;;;;;;;11.46;100.00;98881.31;4961336;28;20051;-79
2022/11/03 11:46:05;;;;;;;3.35;0.43;;;;;;;11.42;100.00;98877.59;4963478;28;20015;-79
2022/11/03 11:48:31;;;;;;;1.10;0.40;;;;;;;11.39;100.00;98883.69;4960189;28;20035;-79
2022/11/03 11:50:57;;;;;;;3.97;0.82;;;;;;;11.41;100.00;98884.19;4961414;28;20481;-78
2022/11/03 11:53:24;;;;;;;3.10;0.52;;;;;;;11.52;100.00;98888.28;4956970;28;20031;-79
2022/11/03 11:56:10;;;;;;;;;;;;;;;;;;;;;
2022/11/03 11:58:55;;;;;;;3.20;0.40;;;;;;;11.95;100.00;98860.44;4982622;28;20049;-78
2022/11/03 12:01:31;;;;;;;;;;;;;;;12.27;100.00;98860.47;4967135;28;20019;-79
2022/11/03 12:04:01;;;;;;;0.30;0.20;;;;;;;13.12;100.00;98859.41;4967768;28;19933;-78
2022/11/03 12:06:36;;;;;;;0.73;0.40;;;;;;;14.29;100.00;98857.53;4978168;28;20038;-78
2022/11/03 12:09:18;;;;;;;;;;;;;;;15.19;100.00;98863.84;4963348;28;20051;-79
2022/11/03 12:11:47;;;;;;;2.53;0.93;;;;;;;19.91;100.00;98860.06;4963599;28;19917;-78
2022/11/03 12:14:35;;;;;;;0.68;0.30;;;;;;;27.89;100.00;98870.69;4970659;28;20031;-77
2022/11/03 12:17:21;;;;;;;1.52;0.40;;;;;;;31.01;85.89;98865.09;4961088;28;20030;-79